createdAt,value
2023-01-22T00:00:05.843Z,74.68
2023-01-22T00:02:35.866Z,74.11
2023-01-22T00:05:02.799Z,74.78
2023-01-22T00:07:29.304Z,74.77
2023-01-22T00:09:55.821Z,73.89
2023-01-22T00:12:22.372Z,73.92
2023-01-22T00:14:48.822Z,74.92
2023-01-22T00:17:15.571Z,74.75
2023-01-22T00:19:42.097Z,74.71
2023-01-22T00:22:08.621Z,74.64
2023-01-22T00:24:35.091Z,75.15
2023-01-22T00:27:01.621Z,75.34
2023-01-22T00:29:30.944Z,75.55
2023-01-22T00:31:57.598Z,75.75
2023-01-22T00:34:24.228Z,75.62
2023-01-22T00:36:50.695Z,75.61
2023-01-22T00:39:17.187Z,75.55
2023-01-22T00:41:43.755Z,75.93
2023-01-22T00:44:10.299Z,75.49
2023-01-22T00:46:36.778Z,75.48
2023-01-22T00:49:03.367Z,75.47
2023-01-22T00:51:30.468Z,74.95
2023-01-22T00:53:56.976Z,74.84
2023-01-22T00:56:23.473Z,74.98
2023-01-22T00:58:49.922Z,75.44
2023-01-22T01:01:16.783Z,75.46
2023-01-22T01:03:43.334Z,74.74
2023-01-22T01:06:14.577Z,74.93
2023-01-22T01:08:42.136Z,75.43
2023-01-22T01:11:12.228Z,75.44
2023-01-22T01:13:39.749Z,74.86
2023-01-22T01:16:08.229Z,75.72
2023-01-22T01:18:35.153Z,75.78
2023-01-22T01:21:01.783Z,75.77
2023-01-22T01:23:29.953Z,76.30
2023-01-22T01:25:56.705Z,76.38
2023-01-22T01:28:23.208Z,76.93
2023-01-22T01:30:49.862Z,76.79
2023-01-22T01:33:16.456Z,76.76
2023-01-22T01:35:43.041Z,76.81
2023-01-22T01:38:09.544Z,76.63
2023-01-22T01:40:41.766Z,76.69
2023-01-22T01:43:15.048Z,76.83
2023-01-22T01:45:41.829Z,76.88
2023-01-22T01:48:17.399Z,76.31
2023-01-22T01:50:47.608Z,76.61
2023-01-22T01:53:14.098Z,76.52
2023-01-22T01:55:40.666Z,76.39
2023-01-22T01:58:10.857Z,76.36
2023-01-22T02:00:39.072Z,76.25
2023-01-22T02:03:05.858Z,76.78
2023-01-22T02:05:37.831Z,77.20
2023-01-22T02:08:05.802Z,76.97
2023-01-22T02:10:32.344Z,76.61
2023-01-22T02:13:01.909Z,77.00
2023-01-22T02:15:28.633Z,76.60
2023-01-22T02:17:55.110Z,76.92
2023-01-22T02:20:21.636Z,76.34
2023-01-22T02:22:48.113Z,76.06
2023-01-22T02:25:14.651Z,75.97
2023-01-22T02:27:41.384Z,75.57
2023-01-22T02:30:08.373Z,75.26
2023-01-22T02:32:34.833Z,74.68
2023-01-22T02:35:01.326Z,74.41
2023-01-22T02:37:27.825Z,74.22
2023-01-22T02:39:54.286Z,73.56
2023-01-22T02:42:20.746Z,73.58
2023-01-22T02:44:47.239Z,72.89
2023-01-22T02:47:13.736Z,73.47
2023-01-22T02:49:40.199Z,72.42
2023-01-22T02:52:06.671Z,71.88
2023-01-22T02:54:33.172Z,72.30
2023-01-22T02:56:59.649Z,72.03
2023-01-22T02:59:26.282Z,71.36
2023-01-22T03:01:52.899Z,70.72
2023-01-22T03:04:19.451Z,71.40
2023-01-22T03:06:46.470Z,70.52
2023-01-22T03:09:15.333Z,70.34
2023-01-22T03:11:42.966Z,70.42
2023-01-22T03:14:09.596Z,70.74
2023-01-22T03:16:36.142Z,69.72
2023-01-22T03:19:03.748Z,69.86
2023-01-22T03:21:30.263Z,71.03
2023-01-22T03:23:56.748Z,70.11
2023-01-22T03:26:24.020Z,70.27
2023-01-22T03:28:51.209Z,70.33
2023-01-22T03:31:18.156Z,71.08
2023-01-22T03:33:44.733Z,70.61
2023-01-22T03:36:13.103Z,71.03
2023-01-22T03:38:39.650Z,71.24
2023-01-22T03:41:08.298Z,70.63
2023-01-22T03:43:35.285Z,71.03
2023-01-22T03:46:07.890Z,70.87
2023-01-22T03:48:34.445Z,71.91
2023-01-22T03:51:20.039Z,72.11
2023-01-22T03:53:46.988Z,71.89
2023-01-22T03:56:16.404Z,71.56
2023-01-22T03:58:43.336Z,72.10
2023-01-22T04:01:21.722Z,72.02
2023-01-22T04:03:48.785Z,71.72
2023-01-22T04:06:15.494Z,72.10
2023-01-22T04:08:43.863Z,72.39
2023-01-22T04:11:10.810Z,71.14
2023-01-22T04:13:38.736Z,71.04
2023-01-22T04:16:05.674Z,71.11
2023-01-22T04:18:32.247Z,72.28
2023-01-22T04:20:58.883Z,71.63
2023-01-22T04:23:25.738Z,71.21
2023-01-22T04:25:52.565Z,72.59
2023-01-22T04:28:19.449Z,73.34
2023-01-22T04:30:47.402Z,73.21
2023-01-22T04:33:13.987Z,74.13
2023-01-22T04:35:40.506Z,74.33
2023-01-22T04:38:09.265Z,74.42
2023-01-22T04:40:35.789Z,74.62
2023-01-22T04:43:03.281Z,74.55
2023-01-22T04:45:30.173Z,74.46
2023-01-22T04:47:58.087Z,74.83
2023-01-22T04:50:27.633Z,75.30
2023-01-22T04:52:55.364Z,76.05
2023-01-22T04:55:22.162Z,76.43
2023-01-22T04:57:48.720Z,75.91
2023-01-22T05:00:15.946Z,76.27
2023-01-22T05:02:42.609Z,75.71
2023-01-22T05:05:09.322Z,76.11
2023-01-22T05:07:35.980Z,76.51
2023-01-22T05:10:02.525Z,76.96
2023-01-22T05:12:29.073Z,76.63
2023-01-22T05:14:55.546Z,76.61
2023-01-22T05:17:22.016Z,76.18
2023-01-22T05:19:49.169Z,75.67
2023-01-22T05:22:15.796Z,76.11
2023-01-22T05:24:42.273Z,75.53
2023-01-22T05:27:08.791Z,75.30
2023-01-22T05:29:35.263Z,75.82
2023-01-22T05:32:01.736Z,76.14
2023-01-22T05:34:28.280Z,75.96
2023-01-22T05:36:55.889Z,76.54
2023-01-22T05:39:24.046Z,76.15
2023-01-22T05:41:52.943Z,76.38
2023-01-22T05:44:19.491Z,76.57
2023-01-22T05:46:47.124Z,76.75
2023-01-22T05:49:13.640Z,76.80
2023-01-22T05:51:40.173Z,77.25
2023-01-22T05:54:06.654Z,77.40
2023-01-22T05:56:33.151Z,77.38
2023-01-22T05:58:59.624Z,77.44
2023-01-22T06:01:26.560Z,77.69
2023-01-22T06:03:53.243Z,77.74
2023-01-22T06:06:19.921Z,77.25
2023-01-22T06:08:47.360Z,77.65
2023-01-22T06:11:16.028Z,77.84
2023-01-22T06:13:42.990Z,77.78
2023-01-22T06:16:10.705Z,78.08
2023-01-22T06:18:37.335Z,78.19
2023-01-22T06:21:05.875Z,77.98
2023-01-22T06:23:32.620Z,77.61
2023-01-22T06:26:00.391Z,77.68
2023-01-22T06:28:27.546Z,78.05
2023-01-22T06:30:56.662Z,77.89
2023-01-22T06:33:23.582Z,77.51
2023-01-22T06:35:56.761Z,77.18
2023-01-22T06:38:23.861Z,76.85
2023-01-22T06:40:57.608Z,77.03
2023-01-22T06:43:24.933Z,77.09
2023-01-22T06:45:52.132Z,76.96
2023-01-22T06:48:18.924Z,76.52
2023-01-22T06:50:45.549Z,76.75
2023-01-22T06:53:12.162Z,76.97
2023-01-22T06:55:39.135Z,76.87
2023-01-22T06:58:07.925Z,76.83
2023-01-22T07:00:34.400Z,76.02
2023-01-22T07:03:02.757Z,76.09
2023-01-22T07:05:29.207Z,76.25
2023-01-22T07:07:55.685Z,76.30
2023-01-22T07:10:22.482Z,76.38
2023-01-22T07:12:54.845Z,77.09
2023-01-22T07:15:21.540Z,76.66
2023-01-22T07:17:51.580Z,76.36
2023-01-22T07:20:19.879Z,76.70
2023-01-22T07:22:46.548Z,76.48
2023-01-22T07:25:13.027Z,76.76
2023-01-22T07:27:39.571Z,76.33
2023-01-22T07:30:09.229Z,76.52
2023-01-22T07:32:36.118Z,76.14
2023-01-22T07:35:02.685Z,76.56
2023-01-22T07:37:29.231Z,76.87
2023-01-22T07:39:55.730Z,76.58
2023-01-22T07:42:22.180Z,76.22
2023-01-22T07:44:48.647Z,76.39
2023-01-22T07:47:15.164Z,76.25
2023-01-22T07:49:41.687Z,76.39
2023-01-22T07:52:08.168Z,76.04
2023-01-22T07:54:34.696Z,76.80
2023-01-22T07:57:01.234Z,76.29
2023-01-22T07:59:27.716Z,76.47
2023-01-22T08:01:54.848Z,76.49
2023-01-22T08:04:21.436Z,76.48
2023-01-22T08:06:47.880Z,76.72
2023-01-22T08:09:14.348Z,76.23
2023-01-22T08:11:40.811Z,77.29
2023-01-22T08:14:07.269Z,77.14
2023-01-22T08:16:33.898Z,76.33
2023-01-22T08:19:00.426Z,75.91
2023-01-22T08:21:26.964Z,76.58
2023-01-22T08:23:53.548Z,76.82
2023-01-22T08:26:20.053Z,76.25
2023-01-22T08:28:46.515Z,75.65
2023-01-22T08:31:26.363Z,75.52
2023-01-22T08:33:53.666Z,75.68
2023-01-22T08:36:20.106Z,75.45
2023-01-22T08:38:46.594Z,75.57
2023-01-22T08:41:13.060Z,75.63
2023-01-22T08:43:39.517Z,75.17
2023-01-22T08:46:06.090Z,75.10
2023-01-22T08:48:32.673Z,75.37
2023-01-22T08:51:03.501Z,75.03
2023-01-22T08:53:29.960Z,75.40
2023-01-22T08:55:56.658Z,75.37
2023-01-22T08:58:23.151Z,74.50
2023-01-22T09:00:49.642Z,74.86
2023-01-22T09:03:16.238Z,74.85
2023-01-22T09:05:43.148Z,74.54
2023-01-22T09:08:09.664Z,73.97
2023-01-22T09:10:36.250Z,73.65
2023-01-22T09:13:02.782Z,73.38
2023-01-22T09:15:29.341Z,72.71
2023-01-22T09:17:56.226Z,73.81
2023-01-22T09:20:22.874Z,73.42
2023-01-22T09:22:49.640Z,73.67
2023-01-22T09:25:16.463Z,74.39
2023-01-22T09:27:42.957Z,74.39
2023-01-22T09:30:10.473Z,74.16
2023-01-22T09:32:37.233Z,73.74
2023-01-22T09:35:03.903Z,73.39
2023-01-22T09:37:30.428Z,72.85
2023-01-22T09:39:56.920Z,72.47
2023-01-22T09:42:30.387Z,72.02
2023-01-22T09:45:00.748Z,72.37
2023-01-22T09:47:33.990Z,72.01
2023-01-22T09:50:05.389Z,72.04
2023-01-22T09:52:38.335Z,71.36
2023-01-22T09:55:12.997Z,72.09
2023-01-22T09:57:50.017Z,71.04
2023-01-22T10:00:18.208Z,70.67
2023-01-22T10:02:55.429Z,70.53
2023-01-22T10:05:34.077Z,69.58
2023-01-22T10:08:21.645Z,69.13
2023-01-22T10:10:49.017Z,68.51
2023-01-22T10:13:30.040Z,68.82
2023-01-22T10:15:56.686Z,68.24
2023-01-22T10:18:46.373Z,68.00
2023-01-22T10:21:24.148Z,67.19
2023-01-22T10:23:51.604Z,67.05
2023-01-22T10:26:29.320Z,67.12
2023-01-22T10:28:58.408Z,66.49
2023-01-22T10:31:36.764Z,65.96
2023-01-22T10:34:25.748Z,65.57
2023-01-22T10:36:53.856Z,64.96
2023-01-22T10:39:20.743Z,65.44
2023-01-22T10:41:48.151Z,65.52
2023-01-22T10:44:22.448Z,64.60
2023-01-22T10:46:49.551Z,63.18
2023-01-22T10:49:19.355Z,62.64
2023-01-22T10:52:00.007Z,61.74
2023-01-22T10:54:30.592Z,62.82
2023-01-22T10:57:05.974Z,62.10
2023-01-22T10:59:33.039Z,62.33
2023-01-22T11:02:01.661Z,63.64
2023-01-22T11:04:33.243Z,62.44
2023-01-22T11:07:07.327Z,61.92
2023-01-22T11:09:51.110Z,63.40
2023-01-22T11:12:31.414Z,63.85
2023-01-22T11:15:38.587Z,62.96
2023-01-22T11:18:06.154Z,64.06
2023-01-22T11:20:45.510Z,65.87
2023-01-22T11:23:20.909Z,65.45
2023-01-22T11:26:07.556Z,64.90
2023-01-22T11:28:34.021Z,64.63
2023-01-22T11:31:11.747Z,64.87
2023-01-22T11:34:07.370Z,64.54
2023-01-22T11:36:39.528Z,64.65
2023-01-22T11:39:39.538Z,64.85
2023-01-22T11:42:24.716Z,62.97
2023-01-22T11:45:00.724Z,62.75
2023-01-22T11:47:27.115Z,61.73
2023-01-22T11:50:06.445Z,62.47
2023-01-22T11:52:48.779Z,62.47
2023-01-22T11:55:24.163Z,64.33
2023-01-22T11:57:59.486Z,64.17
2023-01-22T12:00:39.002Z,63.31
2023-01-22T12:03:08.424Z,62.79
2023-01-22T12:06:19.396Z,62.97
2023-01-22T12:08:51.749Z,61.61
2023-01-22T12:11:43.036Z,61.85
2023-01-22T12:14:25.063Z,61.97
2023-01-22T12:17:04.120Z,62.69
2023-01-22T12:19:48.777Z,61.67
2023-01-22T12:22:27.329Z,61.88
2023-01-22T12:25:04.196Z,61.58
2023-01-22T12:27:38.196Z,61.42
2023-01-22T12:30:24.838Z,61.15
2023-01-22T12:32:59.760Z,61.33
2023-01-22T12:35:29.562Z,61.30
2023-01-22T12:38:12.477Z,61.89
2023-01-22T12:40:42.118Z,59.75
2023-01-22T12:43:08.607Z,59.83
2023-01-22T12:45:45.310Z,59.46
2023-01-22T12:48:30.658Z,59.44
2023-01-22T12:50:58.103Z,59.50
2023-01-22T12:53:33.221Z,59.68
2023-01-22T12:56:09.710Z,59.84
2023-01-22T12:58:38.505Z,61.34
2023-01-22T13:01:10.949Z,60.88
2023-01-22T13:03:39.223Z,60.50
2023-01-22T13:06:40.631Z,61.26
2023-01-22T13:09:24.002Z,61.66
2023-01-22T13:11:50.491Z,61.60
2023-01-22T13:14:21.711Z,61.68
2023-01-22T13:17:03.537Z,61.84
2023-01-22T13:19:36.654Z,61.75
2023-01-22T13:22:03.461Z,62.41
2023-01-22T13:24:30.032Z,61.39
2023-01-22T13:27:01.936Z,62.15
2023-01-22T13:29:31.401Z,62.72
2023-01-22T13:32:00.509Z,62.42
2023-01-22T13:34:28.240Z,63.89
2023-01-22T13:36:55.101Z,63.83
2023-01-22T13:39:31.547Z,63.31
2023-01-22T13:42:00.982Z,63.53
2023-01-22T13:44:36.289Z,62.82
2023-01-22T13:47:03.273Z,62.45
2023-01-22T13:49:32.102Z,62.64
2023-01-22T13:52:04.801Z,63.17
2023-01-22T13:54:42.353Z,63.99
2023-01-22T13:57:16.402Z,64.90
2023-01-22T13:59:55.545Z,64.61
2023-01-22T14:02:35.204Z,64.53
2023-01-22T14:05:02.116Z,64.61
2023-01-22T14:07:31.594Z,64.42
2023-01-22T14:10:18.312Z,64.64
2023-01-22T14:12:45.305Z,64.88
2023-01-22T14:15:17.360Z,64.73
2023-01-22T14:17:44.783Z,63.40
2023-01-22T14:20:12.434Z,64.81
2023-01-22T14:22:38.958Z,64.38
2023-01-22T14:25:06.317Z,64.61
2023-01-22T14:27:58.864Z,63.23
2023-01-22T14:30:25.691Z,63.52
2023-01-22T14:32:52.162Z,63.08
2023-01-22T14:35:20.715Z,62.26
2023-01-22T14:37:47.613Z,62.67
2023-01-22T14:40:16.603Z,63.09
2023-01-22T14:42:43.201Z,62.55
2023-01-22T14:45:10.468Z,62.17
2023-01-22T14:47:36.958Z,62.99
2023-01-22T14:50:03.901Z,61.90
2023-01-22T14:52:30.371Z,61.77
2023-01-22T14:54:56.937Z,61.90
2023-01-22T14:57:24.504Z,61.54
2023-01-22T14:59:51.215Z,60.99
2023-01-22T15:02:18.231Z,61.67
2023-01-22T15:04:45.027Z,62.71
2023-01-22T15:07:11.837Z,62.68
2023-01-22T15:09:38.848Z,62.57
2023-01-22T15:12:05.835Z,61.90
2023-01-22T15:14:35.387Z,62.16
2023-01-22T15:17:01.968Z,62.22
2023-01-22T15:19:30.660Z,62.88
2023-01-22T15:22:02.820Z,62.72
2023-01-22T15:24:29.293Z,63.69
2023-01-22T15:26:55.822Z,64.02
2023-01-22T15:29:23.766Z,64.04
2023-01-22T15:31:50.520Z,63.80
2023-01-22T15:34:17.106Z,65.24
2023-01-22T15:36:43.604Z,64.88
2023-01-22T15:39:10.117Z,65.32
2023-01-22T15:41:37.264Z,65.13
2023-01-22T15:44:05.415Z,66.01
2023-01-22T15:46:34.044Z,66.39
2023-01-22T15:49:01.376Z,66.41
2023-01-22T15:51:28.563Z,66.15
2023-01-22T15:54:00.301Z,65.85
2023-01-22T15:56:29.411Z,66.62
2023-01-22T15:58:56.815Z,66.48
2023-01-22T16:01:24.275Z,65.79
2023-01-22T16:03:50.949Z,65.25
2023-01-22T16:06:20.015Z,66.40
2023-01-22T16:08:46.994Z,65.98
2023-01-22T16:11:14.097Z,67.08
2023-01-22T16:13:41.360Z,66.97
2023-01-22T16:16:25.071Z,67.30
2023-01-22T16:18:52.149Z,67.03
2023-01-22T16:21:19.625Z,67.98
2023-01-22T16:23:47.044Z,68.51
2023-01-22T16:26:16.121Z,68.86
2023-01-22T16:28:43.108Z,68.81
2023-01-22T16:31:12.501Z,68.87
2023-01-22T16:33:41.889Z,68.24
2023-01-22T16:36:10.779Z,68.48
2023-01-22T16:38:39.424Z,69.00
2023-01-22T16:41:24.540Z,68.98
2023-01-22T16:43:57.497Z,69.27
2023-01-22T16:46:25.922Z,69.55
2023-01-22T16:49:06.456Z,69.48
2023-01-22T16:51:38.862Z,68.54
2023-01-22T16:54:06.981Z,69.18
2023-01-22T16:56:33.699Z,69.05
2023-01-22T16:59:00.362Z,68.51
2023-01-22T17:01:28.846Z,69.86
2023-01-22T17:03:55.747Z,69.34
2023-01-22T17:06:31.975Z,69.43
2023-01-22T17:08:58.529Z,69.94
2023-01-22T17:11:25.048Z,69.73
2023-01-22T17:13:51.713Z,69.42
2023-01-22T17:16:19.196Z,69.44
2023-01-22T17:18:46.277Z,69.97
2023-01-22T17:21:16.667Z,69.69
2023-01-22T17:23:43.537Z,68.79
2023-01-22T17:26:12.505Z,68.47
2023-01-22T17:28:39.095Z,69.30
2023-01-22T17:31:12.116Z,69.06
2023-01-22T17:33:38.808Z,69.66
2023-01-22T17:36:06.281Z,69.66
2023-01-22T17:38:37.433Z,69.10
2023-01-22T17:41:10.886Z,69.43
2023-01-22T17:43:37.729Z,69.08
2023-01-22T17:46:08.600Z,69.50
2023-01-22T17:48:36.923Z,68.73
2023-01-22T17:51:09.381Z,68.87
2023-01-22T17:53:38.164Z,68.19
2023-01-22T17:56:10.720Z,68.17
2023-01-22T17:58:37.284Z,68.27
2023-01-22T18:01:05.839Z,68.93
2023-01-22T18:03:33.461Z,68.54
2023-01-22T18:06:00.501Z,69.16
2023-01-22T18:08:31.542Z,69.89
2023-01-22T18:10:58.793Z,69.88
2023-01-22T18:13:26.128Z,70.32
2023-01-22T18:15:53.360Z,70.26
2023-01-22T18:18:20.026Z,70.47
2023-01-22T18:20:46.722Z,69.96
2023-01-22T18:23:14.287Z,69.33
2023-01-22T18:25:42.622Z,69.75
2023-01-22T18:28:09.093Z,69.07
2023-01-22T18:30:35.983Z,69.16
2023-01-22T18:33:02.832Z,68.03
2023-01-22T18:35:29.352Z,68.12
2023-01-22T18:37:56.765Z,68.25
2023-01-22T18:40:24.214Z,67.45
2023-01-22T18:42:51.188Z,66.86
2023-01-22T18:45:18.166Z,68.35
2023-01-22T18:47:44.827Z,67.66
2023-01-22T18:50:11.597Z,68.33
2023-01-22T18:52:38.102Z,68.34
2023-01-22T18:55:04.967Z,66.97
2023-01-22T18:57:34.620Z,67.32
2023-01-22T19:00:01.109Z,67.81
2023-01-22T19:02:27.654Z,68.16
2023-01-22T19:04:54.341Z,68.08
2023-01-22T19:07:22.710Z,67.64
2023-01-22T19:09:50.083Z,67.69
2023-01-22T19:12:16.817Z,67.71
2023-01-22T19:14:43.793Z,67.83
2023-01-22T19:17:10.261Z,67.33
2023-01-22T19:19:37.095Z,67.61
2023-01-22T19:22:03.749Z,67.10
2023-01-22T19:24:30.321Z,67.82
2023-01-22T19:26:57.569Z,68.02
2023-01-22T19:29:25.097Z,68.29
2023-01-22T19:31:53.485Z,68.05
2023-01-22T19:34:22.146Z,67.97
2023-01-22T19:36:50.041Z,67.97
2023-01-22T19:39:17.096Z,68.30
2023-01-22T19:41:46.208Z,68.90
2023-01-22T19:44:13.185Z,68.45
2023-01-22T19:46:39.932Z,67.92
2023-01-22T19:49:07.666Z,67.95
2023-01-22T19:51:34.328Z,67.32
2023-01-22T19:54:01.818Z,67.48
2023-01-22T19:56:30.500Z,67.07
2023-01-22T19:59:11.591Z,67.54
2023-01-22T20:01:38.369Z,66.93
2023-01-22T20:04:05.728Z,67.44
2023-01-22T20:06:32.276Z,67.42
2023-01-22T20:08:58.737Z,67.04
2023-01-22T20:11:25.359Z,68.03
2023-01-22T20:13:51.982Z,68.04
2023-01-22T20:16:27.780Z,68.13
2023-01-22T20:18:56.024Z,67.58
2023-01-22T20:21:23.581Z,68.17
2023-01-22T20:23:51.430Z,68.59
2023-01-22T20:26:19.419Z,68.85
2023-01-22T20:28:46.245Z,68.02
2023-01-22T20:31:15.640Z,66.94
2023-01-22T20:33:42.304Z,68.04
2023-01-22T20:36:10.451Z,68.78
2023-01-22T20:38:37.448Z,68.37
2023-01-22T20:41:05.882Z,67.99
2023-01-22T20:43:32.676Z,67.72
2023-01-22T20:46:01.935Z,68.39
2023-01-22T20:48:30.706Z,68.26
2023-01-22T20:50:57.699Z,68.97
2023-01-22T20:53:24.961Z,68.59
2023-01-22T20:56:03.549Z,68.67
2023-01-22T20:58:31.036Z,67.67
2023-01-22T21:01:12.794Z,67.87
2023-01-22T21:04:05.977Z,68.68
2023-01-22T21:06:34.205Z,68.86
2023-01-22T21:09:01.080Z,68.72
2023-01-22T21:11:30.181Z,68.41
2023-01-22T21:13:57.699Z,68.00
2023-01-22T21:16:27.944Z,66.99
2023-01-22T21:18:56.594Z,66.65
2023-01-22T21:21:24.044Z,67.99
2023-01-22T21:23:53.168Z,68.22
2023-01-22T21:26:23.072Z,67.25
2023-01-22T21:28:53.720Z,67.93
2023-01-22T21:31:20.667Z,68.11
2023-01-22T21:33:48.007Z,68.43
2023-01-22T21:36:15.063Z,68.47
2023-01-22T21:38:42.069Z,68.30
2023-01-22T21:41:16.948Z,68.77
2023-01-22T21:43:44.883Z,68.58
2023-01-22T21:46:11.431Z,69.11
2023-01-22T21:48:38.096Z,68.30
2023-01-22T21:51:05.255Z,68.40
2023-01-22T21:53:31.832Z,68.25
2023-01-22T21:55:58.451Z,68.92
2023-01-22T21:58:24.918Z,68.49
2023-01-22T22:00:51.856Z,68.25
2023-01-22T22:03:18.371Z,68.58
2023-01-22T22:05:54.815Z,69.99
2023-01-22T22:08:21.628Z,69.52
2023-01-22T22:10:51.768Z,68.79
2023-01-22T22:13:18.663Z,69.48
2023-01-22T22:15:45.173Z,68.91
2023-01-22T22:18:14.750Z,69.71
2023-01-22T22:20:41.275Z,70.08
2023-01-22T22:23:07.737Z,70.79
2023-01-22T22:25:34.328Z,70.44
2023-01-22T22:28:00.896Z,69.97
2023-01-22T22:30:27.674Z,70.87
2023-01-22T22:32:54.289Z,70.76
2023-01-22T22:35:21.902Z,70.95
2023-01-22T22:37:48.375Z,70.47
2023-01-22T22:40:14.951Z,69.83
2023-01-22T22:42:41.948Z,70.96
2023-01-22T22:45:08.786Z,70.35
2023-01-22T22:47:36.176Z,70.55
2023-01-22T22:50:04.315Z,70.79
2023-01-22T22:52:33.624Z,71.13
2023-01-22T22:55:00.153Z,71.03
2023-01-22T22:57:26.943Z,71.16
2023-01-22T22:59:53.743Z,71.94
2023-01-22T23:02:21.320Z,71.87
2023-01-22T23:04:48.023Z,72.41
2023-01-22T23:07:14.728Z,72.45
2023-01-22T23:09:41.183Z,73.39
2023-01-22T23:12:07.941Z,72.56
2023-01-22T23:14:34.463Z,72.51
2023-01-22T23:17:00.989Z,72.81
2023-01-22T23:19:27.513Z,72.28
2023-01-22T23:21:57.948Z,72.06
2023-01-22T23:24:25.866Z,72.65
2023-01-22T23:26:52.591Z,71.61
2023-01-22T23:29:23.479Z,71.67
2023-01-22T23:31:50.548Z,72.03
2023-01-22T23:34:20.269Z,71.59
2023-01-22T23:36:47.587Z,70.88
2023-01-22T23:39:17.460Z,71.10
2023-01-22T23:41:44.498Z,72.06
2023-01-22T23:44:11.158Z,71.88
2023-01-22T23:46:37.843Z,71.40
2023-01-22T23:49:05.481Z,71.71
2023-01-22T23:51:32.182Z,72.32
2023-01-22T23:53:58.841Z,72.55
2023-01-22T23:56:29.223Z,73.02
2023-01-22T23:58:56.839Z,73.13
